sensor_id;sensor_type;location;lat;lon;timestamp;temperature;humidity
10245;DHT22;5167;52.164;10.530;2023-02-16T00:00:41;5.70;38.60
10245;DHT22;5167;52.164;10.530;2023-02-16T00:03:16;5.80;38.00
10245;DHT22;5167;52.164;10.530;2023-02-16T00:05:42;5.80;37.90
10245;DHT22;5167;52.164;10.530;2023-02-16T00:08:07;5.90;37.10
10245;DHT22;5167;52.164;10.530;2023-02-16T00:10:35;5.90;37.10
10245;DHT22;5167;52.164;10.530;2023-02-16T00:13:01;6.00;36.80
10245;DHT22;5167;52.164;10.530;2023-02-16T00:15:46;6.10;35.90
10245;DHT22;5167;52.164;10.530;2023-02-16T00:18:19;6.10;35.60
10245;DHT22;5167;52.164;10.530;2023-02-16T00:20:45;6.10;35.00
10245;DHT22;5167;52.164;10.530;2023-02-16T00:23:11;6.20;34.70
10245;DHT22;5167;52.164;10.530;2023-02-16T00:25:36;6.20;34.30
10245;DHT22;5167;52.164;10.530;2023-02-16T00:28:04;6.20;34.10
10245;DHT22;5167;52.164;10.530;2023-02-16T00:30:31;6.20;34.40
10245;DHT22;5167;52.164;10.530;2023-02-16T00:32:57;6.20;33.50
10245;DHT22;5167;52.164;10.530;2023-02-16T00:35:22;6.20;33.30
10245;DHT22;5167;52.164;10.530;2023-02-16T00:37:48;6.20;33.60
10245;DHT22;5167;52.164;10.530;2023-02-16T00:40:15;6.20;33.70
10245;DHT22;5167;52.164;10.530;2023-02-16T00:42:43;6.20;33.40
10245;DHT22;5167;52.164;10.530;2023-02-16T00:45:20;6.30;32.60
10245;DHT22;5167;52.164;10.530;2023-02-16T00:47:48;6.30;31.80
10245;DHT22;5167;52.164;10.530;2023-02-16T00:50:27;6.30;32.30
10245;DHT22;5167;52.164;10.530;2023-02-16T00:52:54;6.40;31.40
10245;DHT22;5167;52.164;10.530;2023-02-16T00:55:23;6.40;30.60
10245;DHT22;5167;52.164;10.530;2023-02-16T00:57:55;6.40;30.60
10245;DHT22;5167;52.164;10.530;2023-02-16T01:00:31;6.40;31.40
10245;DHT22;5167;52.164;10.530;2023-02-16T01:03:00;6.50;30.50
10245;DHT22;5167;52.164;10.530;2023-02-16T01:05:26;6.50;30.20
10245;DHT22;5167;52.164;10.530;2023-02-16T01:07:52;6.40;29.80
10245;DHT22;5167;52.164;10.530;2023-02-16T01:10:37;6.40;30.30
10245;DHT22;5167;52.164;10.530;2023-02-16T01:13:45;6.40;31.20
10245;DHT22;5167;52.164;10.530;2023-02-16T01:16:14;6.30;30.60
10245;DHT22;5167;52.164;10.530;2023-02-16T01:18:42;6.30;31.00
10245;DHT22;5167;52.164;10.530;2023-02-16T01:21:07;6.30;30.90
10245;DHT22;5167;52.164;10.530;2023-02-16T01:23:34;6.20;31.30
10245;DHT22;5167;52.164;10.530;2023-02-16T01:26:00;6.30;30.30
10245;DHT22;5167;52.164;10.530;2023-02-16T01:28:26;6.20;30.80
10245;DHT22;5167;52.164;10.530;2023-02-16T01:30:52;6.20;30.70
10245;DHT22;5167;52.164;10.530;2023-02-16T01:33:18;6.20;30.80
10245;DHT22;5167;52.164;10.530;2023-02-16T01:35:44;6.20;30.70
10245;DHT22;5167;52.164;10.530;2023-02-16T01:38:24;6.20;30.60
10245;DHT22;5167;52.164;10.530;2023-02-16T01:41:17;6.20;31.00
10245;DHT22;5167;52.164;10.530;2023-02-16T01:44:04;6.20;30.90
10245;DHT22;5167;52.164;10.530;2023-02-16T01:46:53;6.20;31.00
10245;DHT22;5167;52.164;10.530;2023-02-16T01:49:21;6.20;30.60
10245;DHT22;5167;52.164;10.530;2023-02-16T01:51:51;6.10;30.50
10245;DHT22;5167;52.164;10.530;2023-02-16T01:59:58;6.10;31.70
10245;DHT22;5167;52.164;10.530;2023-02-16T02:02:27;6.00;31.90
10245;DHT22;5167;52.164;10.530;2023-02-16T02:13:38;6.10;32.50
10245;DHT22;5167;52.164;10.530;2023-02-16T02:16:05;6.10;32.60
10245;DHT22;5167;52.164;10.530;2023-02-16T02:18:31;6.20;32.50
10245;DHT22;5167;52.164;10.530;2023-02-16T02:21:18;6.10;32.40
10245;DHT22;5167;52.164;10.530;2023-02-16T02:29:55;6.10;32.20
10245;DHT22;5167;52.164;10.530;2023-02-16T02:37:48;6.10;32.50
10245;DHT22;5167;52.164;10.530;2023-02-16T02:48:31;6.00;31.80
10245;DHT22;5167;52.164;10.530;2023-02-16T02:51:00;6.00;32.00
10245;DHT22;5167;52.164;10.530;2023-02-16T02:54:07;6.00;32.50
10245;DHT22;5167;52.164;10.530;2023-02-16T02:57:09;6.00;31.60
10245;DHT22;5167;52.164;10.530;2023-02-16T03:00:03;5.90;32.10
10245;DHT22;5167;52.164;10.530;2023-02-16T03:02:50;5.90;31.90
10245;DHT22;5167;52.164;10.530;2023-02-16T03:05:19;5.90;32.70
10245;DHT22;5167;52.164;10.530;2023-02-16T03:07:48;5.90;32.40
10245;DHT22;5167;52.164;10.530;2023-02-16T03:10:24;5.80;32.50
10245;DHT22;5167;52.164;10.530;2023-02-16T03:13:24;5.90;32.80
10245;DHT22;5167;52.164;10.530;2023-02-16T03:15:53;5.90;32.50
10245;DHT22;5167;52.164;10.530;2023-02-16T03:18:23;5.90;32.20
10245;DHT22;5167;52.164;10.530;2023-02-16T03:21:10;5.80;31.70
10245;DHT22;5167;52.164;10.530;2023-02-16T03:23:55;5.80;33.40
10245;DHT22;5167;52.164;10.530;2023-02-16T03:26:40;5.90;33.20
10245;DHT22;5167;52.164;10.530;2023-02-16T03:29:26;5.80;33.60
10245;DHT22;5167;52.164;10.530;2023-02-16T03:31:54;5.90;33.90
10245;DHT22;5167;52.164;10.530;2023-02-16T03:34:21;5.90;32.80
10245;DHT22;5167;52.164;10.530;2023-02-16T03:36:50;5.90;32.80
10245;DHT22;5167;52.164;10.530;2023-02-16T03:39:17;5.90;32.70
10245;DHT22;5167;52.164;10.530;2023-02-16T03:41:46;5.90;33.60
10245;DHT22;5167;52.164;10.530;2023-02-16T03:44:13;5.90;32.80
10245;DHT22;5167;52.164;10.530;2023-02-16T03:46:38;5.90;33.40
10245;DHT22;5167;52.164;10.530;2023-02-16T03:49:04;5.90;33.60
10245;DHT22;5167;52.164;10.530;2023-02-16T03:51:29;5.90;34.20
10245;DHT22;5167;52.164;10.530;2023-02-16T03:53:55;5.90;33.90
10245;DHT22;5167;52.164;10.530;2023-02-16T03:56:20;5.90;33.50
10245;DHT22;5167;52.164;10.530;2023-02-16T03:58:46;5.90;33.50
10245;DHT22;5167;52.164;10.530;2023-02-16T04:01:11;5.80;33.50
10245;DHT22;5167;52.164;10.530;2023-02-16T04:03:37;5.80;33.70
10245;DHT22;5167;52.164;10.530;2023-02-16T04:06:02;5.80;33.40
10245;DHT22;5167;52.164;10.530;2023-02-16T04:08:28;5.80;33.10
10245;DHT22;5167;52.164;10.530;2023-02-16T04:10:53;5.70;32.90
10245;DHT22;5167;52.164;10.530;2023-02-16T04:13:22;5.70;33.50
10245;DHT22;5167;52.164;10.530;2023-02-16T04:15:47;5.70;33.50
10245;DHT22;5167;52.164;10.530;2023-02-16T04:18:13;5.60;33.50
10245;DHT22;5167;52.164;10.530;2023-02-16T04:20:39;5.50;33.80
10245;DHT22;5167;52.164;10.530;2023-02-16T04:23:05;5.60;33.90
10245;DHT22;5167;52.164;10.530;2023-02-16T04:25:31;5.50;34.30
10245;DHT22;5167;52.164;10.530;2023-02-16T04:27:57;5.50;34.30
10245;DHT22;5167;52.164;10.530;2023-02-16T04:30:25;5.50;34.60
10245;DHT22;5167;52.164;10.530;2023-02-16T04:32:51;5.50;34.60
10245;DHT22;5167;52.164;10.530;2023-02-16T04:35:17;5.50;35.80
10245;DHT22;5167;52.164;10.530;2023-02-16T04:37:43;5.40;34.50
10245;DHT22;5167;52.164;10.530;2023-02-16T04:40:10;5.50;34.90
10245;DHT22;5167;52.164;10.530;2023-02-16T04:42:38;5.50;35.70
10245;DHT22;5167;52.164;10.530;2023-02-16T04:45:04;5.50;35.00
10245;DHT22;5167;52.164;10.530;2023-02-16T04:47:30;5.50;34.50
10245;DHT22;5167;52.164;10.530;2023-02-16T04:49:55;5.50;34.70
10245;DHT22;5167;52.164;10.530;2023-02-16T04:52:21;5.50;34.80
10245;DHT22;5167;52.164;10.530;2023-02-16T04:54:46;5.40;35.00
10245;DHT22;5167;52.164;10.530;2023-02-16T04:57:12;5.50;34.90
10245;DHT22;5167;52.164;10.530;2023-02-16T04:59:37;5.50;35.60
10245;DHT22;5167;52.164;10.530;2023-02-16T05:02:03;5.50;35.00
10245;DHT22;5167;52.164;10.530;2023-02-16T05:04:29;5.40;34.80
10245;DHT22;5167;52.164;10.530;2023-02-16T05:06:54;5.40;34.50
10245;DHT22;5167;52.164;10.530;2023-02-16T05:09:20;5.40;34.50
10245;DHT22;5167;52.164;10.530;2023-02-16T05:11:45;5.40;34.40
10245;DHT22;5167;52.164;10.530;2023-02-16T05:14:31;5.40;35.00
10245;DHT22;5167;52.164;10.530;2023-02-16T05:17:17;5.30;34.80
10245;DHT22;5167;52.164;10.530;2023-02-16T05:19:46;5.30;35.20
10245;DHT22;5167;52.164;10.530;2023-02-16T05:22:12;5.30;35.00
10245;DHT22;5167;52.164;10.530;2023-02-16T05:24:38;5.20;34.90
10245;DHT22;5167;52.164;10.530;2023-02-16T05:27:05;5.20;35.50
10245;DHT22;5167;52.164;10.530;2023-02-16T05:29:31;5.00;35.40
10245;DHT22;5167;52.164;10.530;2023-02-16T05:31:57;5.10;35.60
10245;DHT22;5167;52.164;10.530;2023-02-16T05:34:23;5.00;35.30
10245;DHT22;5167;52.164;10.530;2023-02-16T05:36:49;5.00;35.30
10245;DHT22;5167;52.164;10.530;2023-02-16T05:39:15;5.00;35.90
10245;DHT22;5167;52.164;10.530;2023-02-16T05:41:40;5.00;36.80
10245;DHT22;5167;52.164;10.530;2023-02-16T05:44:06;5.00;37.50
10245;DHT22;5167;52.164;10.530;2023-02-16T05:46:34;5.00;37.70
10245;DHT22;5167;52.164;10.530;2023-02-16T05:49:01;5.10;37.60
10245;DHT22;5167;52.164;10.530;2023-02-16T05:51:27;5.10;37.20
10245;DHT22;5167;52.164;10.530;2023-02-16T05:53:53;5.20;38.70
10245;DHT22;5167;52.164;10.530;2023-02-16T05:56:19;5.20;38.10
10245;DHT22;5167;52.164;10.530;2023-02-16T05:58:45;5.20;38.50
10245;DHT22;5167;52.164;10.530;2023-02-16T06:01:12;5.30;38.60
10245;DHT22;5167;52.164;10.530;2023-02-16T06:03:38;5.30;38.10
10245;DHT22;5167;52.164;10.530;2023-02-16T06:06:04;5.50;38.10
10245;DHT22;5167;52.164;10.530;2023-02-16T06:08:31;5.40;38.10
10245;DHT22;5167;52.164;10.530;2023-02-16T06:10:57;5.40;37.90
10245;DHT22;5167;52.164;10.530;2023-02-16T06:13:23;5.60;38.10
10245;DHT22;5167;52.164;10.530;2023-02-16T06:15:54;5.50;37.80
10245;DHT22;5167;52.164;10.530;2023-02-16T06:18:20;5.60;37.50
10245;DHT22;5167;52.164;10.530;2023-02-16T06:20:46;5.60;37.70
10245;DHT22;5167;52.164;10.530;2023-02-16T06:23:12;5.60;37.20
10245;DHT22;5167;52.164;10.530;2023-02-16T06:25:44;5.60;36.90
10245;DHT22;5167;52.164;10.530;2023-02-16T06:28:12;5.70;37.20
10245;DHT22;5167;52.164;10.530;2023-02-16T06:30:38;5.70;37.40
10245;DHT22;5167;52.164;10.530;2023-02-16T06:33:04;5.70;36.60
10245;DHT22;5167;52.164;10.530;2023-02-16T06:35:30;5.60;36.00
10245;DHT22;5167;52.164;10.530;2023-02-16T06:37:55;5.60;35.80
10245;DHT22;5167;52.164;10.530;2023-02-16T06:40:21;5.70;35.90
10245;DHT22;5167;52.164;10.530;2023-02-16T06:42:47;5.70;35.90
10245;DHT22;5167;52.164;10.530;2023-02-16T06:45:13;5.60;35.90
10245;DHT22;5167;52.164;10.530;2023-02-16T06:47:38;5.80;35.80
10245;DHT22;5167;52.164;10.530;2023-02-16T06:50:06;5.70;35.80
10245;DHT22;5167;52.164;10.530;2023-02-16T06:52:34;5.60;35.10
10245;DHT22;5167;52.164;10.530;2023-02-16T06:54:59;5.60;35.10
10245;DHT22;5167;52.164;10.530;2023-02-16T06:57:25;5.60;36.10
10245;DHT22;5167;52.164;10.530;2023-02-16T06:59:50;5.50;35.20
10245;DHT22;5167;52.164;10.530;2023-02-16T07:02:16;5.40;35.20
10245;DHT22;5167;52.164;10.530;2023-02-16T07:04:41;5.40;35.70
10245;DHT22;5167;52.164;10.530;2023-02-16T07:07:07;5.30;35.90
10245;DHT22;5167;52.164;10.530;2023-02-16T07:09:35;5.40;35.80
10245;DHT22;5167;52.164;10.530;2023-02-16T07:12:00;5.30;36.40
10245;DHT22;5167;52.164;10.530;2023-02-16T07:14:26;5.20;36.10
10245;DHT22;5167;52.164;10.530;2023-02-16T07:16:51;5.20;36.40
10245;DHT22;5167;52.164;10.530;2023-02-16T07:19:17;5.20;36.30
10245;DHT22;5167;52.164;10.530;2023-02-16T07:21:42;5.30;37.20
10245;DHT22;5167;52.164;10.530;2023-02-16T07:24:08;5.30;38.30
10245;DHT22;5167;52.164;10.530;2023-02-16T07:26:33;5.30;38.20
10245;DHT22;5167;52.164;10.530;2023-02-16T07:28:59;5.30;38.70
10245;DHT22;5167;52.164;10.530;2023-02-16T07:31:24;5.40;38.20
10245;DHT22;5167;52.164;10.530;2023-02-16T07:33:51;5.40;38.20
10245;DHT22;5167;52.164;10.530;2023-02-16T07:36:16;5.50;38.70
10245;DHT22;5167;52.164;10.530;2023-02-16T07:38:42;5.50;38.90
10245;DHT22;5167;52.164;10.530;2023-02-16T07:41:07;5.60;39.30
10245;DHT22;5167;52.164;10.530;2023-02-16T07:43:33;5.60;39.70
10245;DHT22;5167;52.164;10.530;2023-02-16T07:46:01;5.70;40.10
10245;DHT22;5167;52.164;10.530;2023-02-16T07:48:27;5.80;39.80
10245;DHT22;5167;52.164;10.530;2023-02-16T07:50:52;5.90;40.60
10245;DHT22;5167;52.164;10.530;2023-02-16T07:53:18;6.00;40.30
10245;DHT22;5167;52.164;10.530;2023-02-16T07:55:44;6.10;40.00
10245;DHT22;5167;52.164;10.530;2023-02-16T07:58:10;6.10;40.00
10245;DHT22;5167;52.164;10.530;2023-02-16T08:00:36;6.20;39.80
10245;DHT22;5167;52.164;10.530;2023-02-16T08:03:02;6.30;40.20
10245;DHT22;5167;52.164;10.530;2023-02-16T08:05:28;6.40;39.80
10245;DHT22;5167;52.164;10.530;2023-02-16T08:07:53;6.40;39.60
10245;DHT22;5167;52.164;10.530;2023-02-16T08:10:19;6.50;39.40
10245;DHT22;5167;52.164;10.530;2023-02-16T08:12:45;6.50;39.50
10245;DHT22;5167;52.164;10.530;2023-02-16T08:15:11;6.70;39.70
10245;DHT22;5167;52.164;10.530;2023-02-16T08:17:37;6.70;39.30
10245;DHT22;5167;52.164;10.530;2023-02-16T08:20:04;6.80;39.50
10245;DHT22;5167;52.164;10.530;2023-02-16T08:22:30;6.90;38.80
10245;DHT22;5167;52.164;10.530;2023-02-16T08:24:57;7.00;38.50
10245;DHT22;5167;52.164;10.530;2023-02-16T08:27:23;7.10;37.70
10245;DHT22;5167;52.164;10.530;2023-02-16T08:29:50;7.20;36.20
10245;DHT22;5167;52.164;10.530;2023-02-16T08:32:16;7.20;35.90
10245;DHT22;5167;52.164;10.530;2023-02-16T08:34:41;7.40;34.50
10245;DHT22;5167;52.164;10.530;2023-02-16T08:37:07;7.50;31.50
10245;DHT22;5167;52.164;10.530;2023-02-16T08:39:34;7.70;30.70
10245;DHT22;5167;52.164;10.530;2023-02-16T08:42:00;7.80;28.30
10245;DHT22;5167;52.164;10.530;2023-02-16T08:44:26;7.80;26.60
10245;DHT22;5167;52.164;10.530;2023-02-16T08:46:54;8.00;27.50
10245;DHT22;5167;52.164;10.530;2023-02-16T08:49:21;8.20;27.90
10245;DHT22;5167;52.164;10.530;2023-02-16T08:51:51;8.20;23.30
10245;DHT22;5167;52.164;10.530;2023-02-16T08:54:20;8.40;22.50
10245;DHT22;5167;52.164;10.530;2023-02-16T08:56:46;8.50;22.00
10245;DHT22;5167;52.164;10.530;2023-02-16T08:59:15;8.70;22.50
10245;DHT22;5167;52.164;10.530;2023-02-16T09:01:41;8.80;22.60
10245;DHT22;5167;52.164;10.530;2023-02-16T09:04:07;8.90;20.40
10245;DHT22;5167;52.164;10.530;2023-02-16T09:06:36;8.90;20.90
10245;DHT22;5167;52.164;10.530;2023-02-16T09:09:03;9.10;17.70
10245;DHT22;5167;52.164;10.530;2023-02-16T09:11:29;9.10;18.20
10245;DHT22;5167;52.164;10.530;2023-02-16T09:13:56;9.30;19.80
10245;DHT22;5167;52.164;10.530;2023-02-16T09:16:22;9.40;17.80
10245;DHT22;5167;52.164;10.530;2023-02-16T09:18:50;9.50;16.70
10245;DHT22;5167;52.164;10.530;2023-02-16T09:21:18;9.50;15.30
10245;DHT22;5167;52.164;10.530;2023-02-16T09:23:44;9.60;15.00
10245;DHT22;5167;52.164;10.530;2023-02-16T09:26:14;9.70;14.70
10245;DHT22;5167;52.164;10.530;2023-02-16T09:28:41;9.80;14.10
10245;DHT22;5167;52.164;10.530;2023-02-16T09:31:11;9.80;12.50
10245;DHT22;5167;52.164;10.530;2023-02-16T09:33:37;9.80;10.60
10245;DHT22;5167;52.164;10.530;2023-02-16T09:36:05;9.90;11.50
10245;DHT22;5167;52.164;10.530;2023-02-16T09:38:31;9.90;12.60
10245;DHT22;5167;52.164;10.530;2023-02-16T09:40:58;10.10;12.40
10245;DHT22;5167;52.164;10.530;2023-02-16T09:43:43;10.20;12.60
10245;DHT22;5167;52.164;10.530;2023-02-16T09:46:12;10.40;12.40
10245;DHT22;5167;52.164;10.530;2023-02-16T09:48:43;10.60;11.60
10245;DHT22;5167;52.164;10.530;2023-02-16T09:51:27;10.80;9.90
10245;DHT22;5167;52.164;10.530;2023-02-16T09:53:58;11.00;10.40
10245;DHT22;5167;52.164;10.530;2023-02-16T09:56:51;11.20;8.40
10245;DHT22;5167;52.164;10.530;2023-02-16T09:59:38;11.40;6.80
10245;DHT22;5167;52.164;10.530;2023-02-16T10:02:36;11.50;6.00
10245;DHT22;5167;52.164;10.530;2023-02-16T10:05:16;11.70;5.00
10245;DHT22;5167;52.164;10.530;2023-02-16T10:07:50;11.80;5.00
10245;DHT22;5167;52.164;10.530;2023-02-16T10:10:22;12.00;5.00
10245;DHT22;5167;52.164;10.530;2023-02-16T10:12:57;12.00;5.00
10245;DHT22;5167;52.164;10.530;2023-02-16T10:15:26;12.00;5.00
10245;DHT22;5167;52.164;10.530;2023-02-16T10:18:16;12.00;5.00
10245;DHT22;5167;52.164;10.530;2023-02-16T10:20:45;12.00;5.00
10245;DHT22;5167;52.164;10.530;2023-02-16T10:26:13;12.10;5.00
10245;DHT22;5167;52.164;10.530;2023-02-16T10:28:50;12.00;5.00
10245;DHT22;5167;52.164;10.530;2023-02-16T10:39:54;12.10;5.00
10245;DHT22;5167;52.164;10.530;2023-02-16T10:47:37;12.20;5.00
10245;DHT22;5167;52.164;10.530;2023-02-16T10:50:04;12.30;5.00
10245;DHT22;5167;52.164;10.530;2023-02-16T10:52:34;12.20;5.00
10245;DHT22;5167;52.164;10.530;2023-02-16T10:55:01;12.20;5.00
10245;DHT22;5167;52.164;10.530;2023-02-16T10:57:29;12.20;5.00
10245;DHT22;5167;52.164;10.530;2023-02-16T10:59:58;12.20;5.00
10245;DHT22;5167;52.164;10.530;2023-02-16T11:02:40;12.20;5.00
10245;DHT22;5167;52.164;10.530;2023-02-16T11:07:52;12.40;5.00
10245;DHT22;5167;52.164;10.530;2023-02-16T11:10:20;12.30;5.00
10245;DHT22;5167;52.164;10.530;2023-02-16T11:12:53;12.30;5.00
10245;DHT22;5167;52.164;10.530;2023-02-16T11:15:23;12.30;5.00
10245;DHT22;5167;52.164;10.530;2023-02-16T11:18:05;12.30;5.00
10245;DHT22;5167;52.164;10.530;2023-02-16T11:20:51;12.30;5.00
10245;DHT22;5167;52.164;10.530;2023-02-16T11:23:26;12.30;5.00
10245;DHT22;5167;52.164;10.530;2023-02-16T11:26:01;12.20;5.00
10245;DHT22;5167;52.164;10.530;2023-02-16T11:31:24;12.30;5.00
10245;DHT22;5167;52.164;10.530;2023-02-16T11:36:30;12.50;5.00
10245;DHT22;5167;52.164;10.530;2023-02-16T11:41:54;12.40;5.00
10245;DHT22;5167;52.164;10.530;2023-02-16T11:44:41;12.30;5.00
10245;DHT22;5167;52.164;10.530;2023-02-16T11:47:30;12.30;5.00
10245;DHT22;5167;52.164;10.530;2023-02-16T11:50:12;12.20;5.00
10245;DHT22;5167;52.164;10.530;2023-02-16T11:52:41;12.20;5.00
10245;DHT22;5167;52.164;10.530;2023-02-16T11:55:22;12.20;5.00
10245;DHT22;5167;52.164;10.530;2023-02-16T11:57:48;12.20;5.00
10245;DHT22;5167;52.164;10.530;2023-02-16T12:00:17;12.20;5.00
10245;DHT22;5167;52.164;10.530;2023-02-16T12:03:23;12.20;5.00
10245;DHT22;5167;52.164;10.530;2023-02-16T12:09:08;12.30;5.00
10245;DHT22;5167;52.164;10.530;2023-02-16T12:14:48;12.00;5.00
10245;DHT22;5167;52.164;10.530;2023-02-16T12:20:00;12.00;5.00
10245;DHT22;5167;52.164;10.530;2023-02-16T12:22:39;12.00;5.00
10245;DHT22;5167;52.164;10.530;2023-02-16T12:30:55;12.10;5.00
10245;DHT22;5167;52.164;10.530;2023-02-16T12:33:37;12.10;5.00
10245;DHT22;5167;52.164;10.530;2023-02-16T12:36:30;12.20;5.00
10245;DHT22;5167;52.164;10.530;2023-02-16T12:39:21;12.20;5.00
10245;DHT22;5167;52.164;10.530;2023-02-16T12:42:18;12.30;5.00
10245;DHT22;5167;52.164;10.530;2023-02-16T12:44:52;12.30;5.00
10245;DHT22;5167;52.164;10.530;2023-02-16T12:47:24;12.30;5.00
10245;DHT22;5167;52.164;10.530;2023-02-16T12:50:04;12.30;5.00
10245;DHT22;5167;52.164;10.530;2023-02-16T12:52:54;12.30;5.00
10245;DHT22;5167;52.164;10.530;2023-02-16T12:55:34;12.30;5.00
10245;DHT22;5167;52.164;10.530;2023-02-16T13:05:53;12.10;5.00
10245;DHT22;5167;52.164;10.530;2023-02-16T13:08:32;12.20;5.00
10245;DHT22;5167;52.164;10.530;2023-02-16T13:11:16;12.10;5.00
10245;DHT22;5167;52.164;10.530;2023-02-16T13:13:46;12.10;5.00
10245;DHT22;5167;52.164;10.530;2023-02-16T13:16:17;12.00;5.00
10245;DHT22;5167;52.164;10.530;2023-02-16T13:18:46;12.10;5.00
10245;DHT22;5167;52.164;10.530;2023-02-16T13:30:13;12.10;5.00
10245;DHT22;5167;52.164;10.530;2023-02-16T13:32:59;12.00;5.00
10245;DHT22;5167;52.164;10.530;2023-02-16T13:46:44;12.00;5.00
10245;DHT22;5167;52.164;10.530;2023-02-16T13:49:36;11.90;5.00
10245;DHT22;5167;52.164;10.530;2023-02-16T13:52:05;11.90;5.00
10245;DHT22;5167;52.164;10.530;2023-02-16T13:54:36;11.80;5.00
10245;DHT22;5167;52.164;10.530;2023-02-16T13:57:03;11.90;5.00
10245;DHT22;5167;52.164;10.530;2023-02-16T14:01:55;11.90;5.00
10245;DHT22;5167;52.164;10.530;2023-02-16T14:07:19;12.00;5.00
10245;DHT22;5167;52.164;10.530;2023-02-16T14:17:28;11.90;5.00
10245;DHT22;5167;52.164;10.530;2023-02-16T14:22:55;11.90;5.00
10245;DHT22;5167;52.164;10.530;2023-02-16T14:25:34;11.90;5.00
10245;DHT22;5167;52.164;10.530;2023-02-16T14:30:53;11.90;5.00
10245;DHT22;5167;52.164;10.530;2023-02-16T14:36:18;11.90;5.00
10245;DHT22;5167;52.164;10.530;2023-02-16T14:38:46;11.90;5.00
10245;DHT22;5167;52.164;10.530;2023-02-16T14:43:50;11.90;5.00
10245;DHT22;5167;52.164;10.530;2023-02-16T14:46:59;11.90;5.00
10245;DHT22;5167;52.164;10.530;2023-02-16T14:52:59;11.90;5.00
10245;DHT22;5167;52.164;10.530;2023-02-16T14:55:45;11.90;5.00
10245;DHT22;5167;52.164;10.530;2023-02-16T15:00:56;11.90;5.00
10245;DHT22;5167;52.164;10.530;2023-02-16T15:03:40;11.90;5.00
10245;DHT22;5167;52.164;10.530;2023-02-16T15:06:06;11.90;5.00
10245;DHT22;5167;52.164;10.530;2023-02-16T15:08:42;11.90;5.00
10245;DHT22;5167;52.164;10.530;2023-02-16T15:11:19;11.90;5.00
10245;DHT22;5167;52.164;10.530;2023-02-16T15:13:47;11.90;5.00
10245;DHT22;5167;52.164;10.530;2023-02-16T15:16:18;11.80;5.00
10245;DHT22;5167;52.164;10.530;2023-02-16T15:18:49;11.70;5.00
10245;DHT22;5167;52.164;10.530;2023-02-16T15:21:21;11.80;5.00
10245;DHT22;5167;52.164;10.530;2023-02-16T15:23:51;11.80;5.00
10245;DHT22;5167;52.164;10.530;2023-02-16T15:26:19;11.80;5.00
10245;DHT22;5167;52.164;10.530;2023-02-16T15:29:01;11.80;5.00
10245;DHT22;5167;52.164;10.530;2023-02-16T15:31:34;11.70;5.00
10245;DHT22;5167;52.164;10.530;2023-02-16T15:34:04;11.70;5.00
10245;DHT22;5167;52.164;10.530;2023-02-16T15:36:39;11.70;5.00
10245;DHT22;5167;52.164;10.530;2023-02-16T15:39:08;11.80;5.00
10245;DHT22;5167;52.164;10.530;2023-02-16T15:41:39;11.70;5.00
10245;DHT22;5167;52.164;10.530;2023-02-16T15:44:12;11.70;5.00
10245;DHT22;5167;52.164;10.530;2023-02-16T15:46:41;11.70;5.00
10245;DHT22;5167;52.164;10.530;2023-02-16T15:49:11;11.60;5.00
10245;DHT22;5167;52.164;10.530;2023-02-16T15:51:39;11.60;5.00
10245;DHT22;5167;52.164;10.530;2023-02-16T15:56:53;11.60;5.00
10245;DHT22;5167;52.164;10.530;2023-02-16T15:59:53;11.60;5.00
10245;DHT22;5167;52.164;10.530;2023-02-16T16:02:36;11.60;5.00
10245;DHT22;5167;52.164;10.530;2023-02-16T16:05:06;11.50;5.00
10245;DHT22;5167;52.164;10.530;2023-02-16T16:07:39;11.50;5.00
10245;DHT22;5167;52.164;10.530;2023-02-16T16:12:45;11.50;5.00
10245;DHT22;5167;52.164;10.530;2023-02-16T16:15:18;11.50;5.00
10245;DHT22;5167;52.164;10.530;2023-02-16T16:17:47;11.40;5.00
10245;DHT22;5167;52.164;10.530;2023-02-16T16:25:44;11.40;6.20
10245;DHT22;5167;52.164;10.530;2023-02-16T16:28:33;11.40;7.10
10245;DHT22;5167;52.164;10.530;2023-02-16T16:33:56;11.40;8.40
10245;DHT22;5167;52.164;10.530;2023-02-16T16:36:33;11.30;9.70
10245;DHT22;5167;52.164;10.530;2023-02-16T16:41:45;11.30;9.50
10245;DHT22;5167;52.164;10.530;2023-02-16T16:44:26;11.30;10.10
10245;DHT22;5167;52.164;10.530;2023-02-16T16:46:53;11.30;10.20
10245;DHT22;5167;52.164;10.530;2023-02-16T16:49:18;11.40;10.30
10245;DHT22;5167;52.164;10.530;2023-02-16T16:51:51;11.20;11.00
10245;DHT22;5167;52.164;10.530;2023-02-16T16:54:33;11.20;10.80
10245;DHT22;5167;52.164;10.530;2023-02-16T16:57:14;11.30;10.80
10245;DHT22;5167;52.164;10.530;2023-02-16T16:59:39;11.20;10.90
10245;DHT22;5167;52.164;10.530;2023-02-16T17:02:05;11.30;11.50
10245;DHT22;5167;52.164;10.530;2023-02-16T17:04:30;11.00;11.90
10245;DHT22;5167;52.164;10.530;2023-02-16T17:06:56;11.10;12.60
10245;DHT22;5167;52.164;10.530;2023-02-16T17:09:21;11.00;12.60
10245;DHT22;5167;52.164;10.530;2023-02-16T17:11:47;11.00;12.30
10245;DHT22;5167;52.164;10.530;2023-02-16T17:14:17;11.00;13.20
10245;DHT22;5167;52.164;10.530;2023-02-16T17:16:46;11.00;12.40
10245;DHT22;5167;52.164;10.530;2023-02-16T17:19:17;10.90;12.80
10245;DHT22;5167;52.164;10.530;2023-02-16T17:21:42;11.00;13.60
10245;DHT22;5167;52.164;10.530;2023-02-16T17:24:08;10.90;13.30
10245;DHT22;5167;52.164;10.530;2023-02-16T17:26:35;10.90;13.40
10245;DHT22;5167;52.164;10.530;2023-02-16T17:29:02;10.90;13.00
10245;DHT22;5167;52.164;10.530;2023-02-16T17:31:28;11.00;13.20
10245;DHT22;5167;52.164;10.530;2023-02-16T17:33:53;10.90;11.80
10245;DHT22;5167;52.164;10.530;2023-02-16T17:36:20;11.00;12.70
10245;DHT22;5167;52.164;10.530;2023-02-16T17:38:47;10.90;12.70
10245;DHT22;5167;52.164;10.530;2023-02-16T17:41:24;11.00;12.70
10245;DHT22;5167;52.164;10.530;2023-02-16T17:43:50;10.90;12.30
10245;DHT22;5167;52.164;10.530;2023-02-16T17:46:17;10.90;12.70
10245;DHT22;5167;52.164;10.530;2023-02-16T17:48:44;10.80;12.70
10245;DHT22;5167;52.164;10.530;2023-02-16T17:51:14;10.80;13.90
10245;DHT22;5167;52.164;10.530;2023-02-16T17:53:40;10.80;13.50
10245;DHT22;5167;52.164;10.530;2023-02-16T17:56:05;10.80;13.70
10245;DHT22;5167;52.164;10.530;2023-02-16T17:58:34;10.80;13.90
10245;DHT22;5167;52.164;10.530;2023-02-16T18:01:00;10.80;14.30
10245;DHT22;5167;52.164;10.530;2023-02-16T18:03:25;10.80;14.00
10245;DHT22;5167;52.164;10.530;2023-02-16T18:05:51;10.80;14.00
10245;DHT22;5167;52.164;10.530;2023-02-16T18:08:16;10.80;14.20
10245;DHT22;5167;52.164;10.530;2023-02-16T18:10:48;10.80;14.40
10245;DHT22;5167;52.164;10.530;2023-02-16T18:13:15;10.90;14.60
10245;DHT22;5167;52.164;10.530;2023-02-16T18:15:43;10.80;14.50
10245;DHT22;5167;52.164;10.530;2023-02-16T18:18:10;10.80;15.00
10245;DHT22;5167;52.164;10.530;2023-02-16T18:20:37;10.70;15.70
10245;DHT22;5167;52.164;10.530;2023-02-16T18:23:02;10.70;15.70
10245;DHT22;5167;52.164;10.530;2023-02-16T18:25:29;10.70;16.20
10245;DHT22;5167;52.164;10.530;2023-02-16T18:27:54;10.70;16.80
10245;DHT22;5167;52.164;10.530;2023-02-16T18:30:20;10.70;17.00
10245;DHT22;5167;52.164;10.530;2023-02-16T18:32:46;10.60;16.80
10245;DHT22;5167;52.164;10.530;2023-02-16T18:35:12;10.70;17.50
10245;DHT22;5167;52.164;10.530;2023-02-16T18:37:38;10.70;17.60